createdAt,value
2023-03-25T17:01:19.995Z,18.49
2023-03-25T17:01:43.091Z,18.51
2023-03-25T17:01:49.953Z,18.46
2023-03-25T17:01:59.510Z,18.47
2023-03-25T17:02:09.647Z,18.47
2023-03-25T17:02:19.826Z,18.47
2023-03-25T17:02:29.931Z,18.47
2023-03-25T17:02:50.572Z,18.44
2023-03-25T17:03:00.276Z,18.42
2023-03-25T17:03:11.984Z,18.38
2023-03-25T17:03:25.255Z,18.32
2023-03-25T17:03:31.582Z,18.23
2023-03-25T17:03:41.742Z,18.14
2023-03-25T17:03:51.567Z,18.10
2023-03-25T17:04:01.794Z,18.04
2023-03-25T17:04:22.655Z,17.96
2023-03-25T17:04:32.457Z,17.95
2023-03-25T17:04:42.521Z,17.94
2023-03-25T17:04:52.684Z,17.92
2023-03-25T17:05:02.576Z,17.89
2023-03-25T17:05:12.863Z,17.87
2023-03-25T17:05:23.068Z,17.87
2023-03-25T17:05:33.231Z,17.87
2023-03-25T17:05:43.552Z,17.86
2023-03-25T17:05:53.788Z,17.83
2023-03-25T17:06:03.386Z,17.83
2023-03-25T17:06:13.592Z,17.81
2023-03-25T17:06:23.463Z,17.83
2023-03-25T17:06:33.782Z,17.83
2023-03-25T17:06:43.810Z,17.83
2023-03-25T17:06:54.186Z,17.83
2023-03-25T17:07:04.236Z,17.83
2023-03-25T17:07:14.428Z,17.83
2023-03-25T17:07:24.402Z,17.81
2023-03-25T17:07:35.043Z,17.81
2023-03-25T17:07:44.600Z,17.81
2023-03-25T17:07:54.922Z,17.80
2023-03-25T17:08:04.697Z,17.80
2023-03-25T17:08:14.867Z,17.79
2023-03-25T17:08:25.046Z,17.80
2023-03-25T17:08:35.454Z,17.80
2023-03-25T17:08:45.413Z,17.81
2023-03-25T17:08:55.474Z,17.80
2023-03-25T17:09:05.589Z,17.81
2023-03-25T17:09:15.758Z,17.81
2023-03-25T17:09:25.780Z,17.81
2023-03-25T17:09:36.183Z,17.79
2023-03-25T17:09:46.007Z,17.79
2023-03-25T17:09:56.186Z,17.79
2023-03-25T17:10:07.032Z,17.76
2023-03-25T17:10:17.948Z,17.76
2023-03-25T17:10:26.741Z,17.76
2023-03-25T17:10:36.519Z,17.77
2023-03-25T17:10:46.902Z,17.79
2023-03-25T17:10:59.280Z,17.80
2023-03-25T17:11:06.994Z,17.80
2023-03-25T17:11:28.309Z,17.80
2023-03-25T17:11:39.457Z,17.80
2023-03-25T17:11:47.544Z,17.80
2023-03-25T17:11:57.514Z,17.81
2023-03-25T17:12:07.835Z,17.81
2023-03-25T17:12:18.447Z,17.81
2023-03-25T17:12:39.988Z,17.83
2023-03-25T17:12:53.824Z,17.84
2023-03-25T17:13:00.546Z,17.83
2023-03-25T17:13:14.125Z,17.84
2023-03-25T17:13:21.451Z,17.80
2023-03-25T17:13:30.436Z,17.81
2023-03-25T17:13:41.016Z,17.83
2023-03-25T17:14:00.905Z,17.84
2023-03-25T17:14:14.279Z,17.84
2023-03-25T17:14:26.317Z,17.83
2023-03-25T17:14:36.059Z,17.81
2023-03-25T17:14:42.616Z,17.83
2023-03-25T17:14:54.878Z,17.86
2023-03-25T17:15:02.737Z,17.87
2023-03-25T17:15:14.207Z,17.89
2023-03-25T17:15:34.493Z,17.86
2023-03-25T17:15:46.879Z,17.86
2023-03-25T17:15:53.950Z,17.84
2023-03-25T17:16:05.160Z,17.84
2023-03-25T17:16:17.458Z,17.84
2023-03-25T17:16:24.390Z,17.83
2023-03-25T17:16:46.163Z,17.84
2023-03-25T17:16:56.496Z,17.86
2023-03-25T17:17:04.799Z,17.84
2023-03-25T17:17:15.784Z,17.84
2023-03-25T17:17:27.028Z,17.86
2023-03-25T17:17:35.163Z,17.81
2023-03-25T17:17:54.345Z,17.80
2023-03-25T17:18:05.462Z,17.81
2023-03-25T17:18:16.498Z,17.80
2023-03-25T17:18:32.008Z,17.79
2023-03-25T17:18:41.906Z,17.77
2023-03-25T17:18:48.705Z,17.77
2023-03-25T17:18:58.620Z,17.77
2023-03-25T17:19:09.957Z,17.77
2023-03-25T17:19:23.563Z,17.77
2023-03-25T17:19:39.856Z,17.76
2023-03-25T17:19:50.844Z,17.76
2023-03-25T17:20:02.598Z,17.76
2023-03-25T17:20:10.057Z,17.73
2023-03-25T17:20:20.260Z,17.74
2023-03-25T17:20:33.459Z,17.76
2023-03-25T17:20:40.398Z,17.74
2023-03-25T17:20:57.490Z,17.74
2023-03-25T17:21:04.694Z,17.73
2023-03-25T17:21:13.571Z,17.74
2023-03-25T17:21:24.900Z,17.76
2023-03-25T17:21:33.884Z,17.77
2023-03-25T17:21:45.072Z,17.77
2023-03-25T17:22:06.433Z,17.77
2023-03-25T17:22:14.948Z,17.77
2023-03-25T17:22:26.575Z,17.79
2023-03-25T17:22:36.857Z,17.80
2023-03-25T17:22:44.819Z,17.83
2023-03-25T17:22:57.596Z,17.84
2023-03-25T17:23:15.116Z,17.87
2023-03-25T17:23:30.005Z,17.89
2023-03-25T17:23:36.150Z,17.87
2023-03-25T17:23:47.169Z,17.91
2023-03-25T17:23:58.196Z,17.94
2023-03-25T17:24:06.551Z,17.94
2023-03-25T17:24:16.379Z,17.96
2023-03-25T17:24:36.936Z,17.99
2023-03-25T17:24:46.849Z,17.98
2023-03-25T17:24:58.921Z,18.01
2023-03-25T17:25:07.180Z,18.01
2023-03-25T17:25:17.251Z,18.02
2023-03-25T17:25:27.333Z,18.04
2023-03-25T17:25:37.540Z,18.05
2023-03-25T17:25:47.565Z,18.07
2023-03-25T17:26:08.053Z,18.07
2023-03-25T17:26:18.101Z,18.09
2023-03-25T17:26:28.165Z,18.10
2023-03-25T17:26:38.313Z,18.11
2023-03-25T17:26:48.473Z,18.13
2023-03-25T17:26:58.427Z,18.11
2023-03-25T17:27:08.584Z,18.13
2023-03-25T17:27:18.962Z,18.13
2023-03-25T17:27:28.841Z,18.13
2023-03-25T17:27:39.132Z,18.14
2023-03-25T17:27:49.185Z,18.13
2023-03-25T17:27:59.244Z,18.10
2023-03-25T17:28:09.345Z,18.09
2023-03-25T17:28:19.736Z,18.09
2023-03-25T17:28:29.582Z,18.09
2023-03-25T17:28:39.630Z,18.10
2023-03-25T17:28:50.051Z,18.09
2023-03-25T17:29:00.291Z,18.10
2023-03-25T17:29:10.966Z,18.11
2023-03-25T17:29:20.277Z,18.10
2023-03-25T17:29:31.228Z,18.10
2023-03-25T17:29:40.505Z,18.11
2023-03-25T17:29:50.812Z,18.13
2023-03-25T17:30:00.971Z,18.14
2023-03-25T17:30:11.060Z,18.17
2023-03-25T17:30:21.882Z,18.19
2023-03-25T17:30:32.201Z,18.21
2023-03-25T17:30:41.674Z,18.23
2023-03-25T17:30:52.442Z,18.25
2023-03-25T17:31:01.792Z,18.28
2023-03-25T17:31:11.878Z,18.26
2023-03-25T17:31:23.617Z,18.29
2023-03-25T17:31:32.800Z,18.29
2023-03-25T17:31:42.137Z,18.31
2023-03-25T17:32:02.529Z,18.34
2023-03-25T17:32:12.674Z,18.32
2023-03-25T17:32:22.776Z,18.32
2023-03-25T17:32:32.793Z,18.34
2023-03-25T17:32:42.950Z,18.34
2023-03-25T17:32:52.954Z,18.35
2023-03-25T17:33:02.960Z,18.32
2023-03-25T17:33:13.078Z,18.34
2023-03-25T17:33:24.610Z,18.34
2023-03-25T17:33:33.377Z,18.34
2023-03-25T17:33:43.753Z,18.34
2023-03-25T17:33:54.015Z,18.34
2023-03-25T17:34:03.997Z,18.32
2023-03-25T17:34:14.530Z,18.32
2023-03-25T17:34:34.494Z,18.32
2023-03-25T17:34:44.365Z,18.31
2023-03-25T17:34:54.418Z,18.31
2023-03-25T17:35:04.600Z,18.29
2023-03-25T17:35:14.799Z,18.28
2023-03-25T17:35:24.847Z,18.28
2023-03-25T17:35:34.944Z,18.29
2023-03-25T17:35:45.080Z,18.29
2023-03-25T17:35:55.094Z,18.32
2023-03-25T17:36:05.352Z,18.31
2023-03-25T17:36:16.746Z,18.31
2023-03-25T17:36:26.333Z,18.32
2023-03-25T17:36:35.968Z,18.29
2023-03-25T17:36:45.806Z,18.32
2023-03-25T17:36:56.085Z,18.32
2023-03-25T17:37:06.149Z,18.32
2023-03-25T17:37:26.399Z,18.32
2023-03-25T17:37:36.404Z,18.28
2023-03-25T17:37:46.416Z,18.29
2023-03-25T17:37:56.692Z,18.25
2023-03-25T17:38:06.659Z,18.21
2023-03-25T17:38:17.504Z,18.19
2023-03-25T17:38:27.024Z,18.17
2023-03-25T17:38:37.111Z,18.16
2023-03-25T17:38:47.224Z,18.13
2023-03-25T17:38:57.424Z,18.10
2023-03-25T17:39:07.582Z,18.09
2023-03-25T17:39:18.435Z,18.07
2023-03-25T17:39:28.492Z,18.07
2023-03-25T17:39:38.092Z,18.04
2023-03-25T17:39:48.229Z,18.05
2023-03-25T17:39:58.208Z,18.04
2023-03-25T17:40:08.358Z,18.02
2023-03-25T17:40:19.725Z,18.02
2023-03-25T17:40:28.649Z,18.02
2023-03-25T17:40:38.756Z,18.01
2023-03-25T17:40:48.942Z,18.02
2023-03-25T17:40:59.061Z,17.99
2023-03-25T17:41:09.208Z,17.99
2023-03-25T17:41:29.443Z,17.98
2023-03-25T17:41:39.411Z,17.95
2023-03-25T17:41:50.646Z,17.95
2023-03-25T17:41:59.764Z,17.95
2023-03-25T17:42:09.994Z,17.94
2023-03-25T17:42:20.018Z,17.94
2023-03-25T17:42:30.357Z,17.92
2023-03-25T17:42:40.439Z,17.92
2023-03-25T17:42:59.618Z,17.91
2023-03-25T17:43:10.994Z,17.94
2023-03-25T17:43:20.835Z,17.92
2023-03-25T17:43:31.002Z,17.92
2023-03-25T17:43:41.183Z,17.92
2023-03-25T17:43:52.111Z,17.92
2023-03-25T17:44:01.359Z,17.92
2023-03-25T17:44:11.418Z,17.91
2023-03-25T17:44:21.426Z,17.92
2023-03-25T17:44:31.742Z,17.94
2023-03-25T17:44:41.886Z,17.92
2023-03-25T17:45:02.271Z,17.92
2023-03-25T17:45:12.285Z,17.94
2023-03-25T17:45:22.158Z,17.95
2023-03-25T17:45:32.442Z,17.95
2023-03-25T17:45:42.530Z,17.95
2023-03-25T17:45:52.654Z,17.96
2023-03-25T17:46:02.758Z,17.98
2023-03-25T17:46:12.998Z,17.98
2023-03-25T17:46:23.078Z,17.98
2023-03-25T17:46:33.181Z,17.99
2023-03-25T17:46:43.453Z,17.99
2023-03-25T17:46:53.516Z,18.01
2023-03-25T17:47:03.958Z,17.98
2023-03-25T17:47:13.783Z,17.99
2023-03-25T17:47:24.603Z,17.99
2023-03-25T17:47:34.114Z,17.99
2023-03-25T17:47:44.171Z,17.99
2023-03-25T17:47:54.305Z,17.99
2023-03-25T17:48:04.316Z,18.01
2023-03-25T17:48:14.566Z,18.02
2023-03-25T17:48:24.970Z,18.02
2023-03-25T17:48:35.625Z,18.02
2023-03-25T17:48:45.011Z,18.04
2023-03-25T17:48:55.159Z,18.02
2023-03-25T17:49:05.392Z,18.05
2023-03-25T17:49:15.499Z,18.05
2023-03-25T17:49:26.670Z,18.07
2023-03-25T17:49:35.671Z,18.09
2023-03-25T17:49:45.934Z,18.10
2023-03-25T17:49:55.962Z,18.10
2023-03-25T17:50:06.235Z,18.13
2023-03-25T17:50:16.104Z,18.13
2023-03-25T17:50:36.587Z,18.17
2023-03-25T17:50:46.833Z,18.19
2023-03-25T17:50:56.890Z,18.20
2023-03-25T17:51:07.171Z,18.20
2023-03-25T17:51:17.309Z,18.19
2023-03-25T17:51:27.442Z,18.21
2023-03-25T17:51:38.056Z,18.23
2023-03-25T17:51:47.589Z,18.21
2023-03-25T17:51:58.577Z,18.23
2023-03-25T17:52:07.819Z,18.25
2023-03-25T17:52:17.955Z,18.25
2023-03-25T17:52:28.964Z,18.25
2023-03-25T17:52:38.155Z,18.26
2023-03-25T17:52:48.303Z,18.28
2023-03-25T17:53:08.925Z,18.29
2023-03-25T17:53:19.931Z,18.29
2023-03-25T17:53:29.020Z,18.31
2023-03-25T17:53:38.925Z,18.31
2023-03-25T17:53:49.170Z,18.32
2023-03-25T17:53:59.220Z,18.34
2023-03-25T17:54:09.276Z,18.35
2023-03-25T17:54:28.801Z,18.38
2023-03-25T17:54:40.503Z,18.39
2023-03-25T17:54:50.496Z,18.41
2023-03-25T17:55:00.095Z,18.44
2023-03-25T17:55:10.186Z,18.44
2023-03-25T17:55:20.442Z,18.47
2023-03-25T17:55:30.416Z,18.49
2023-03-25T17:55:41.518Z,18.50
2023-03-25T17:55:50.587Z,18.53
2023-03-25T17:56:00.633Z,18.54
2023-03-25T17:56:11.443Z,18.57
2023-03-25T17:56:20.945Z,18.57
2023-03-25T17:56:30.926Z,18.59
2023-03-25T17:56:51.312Z,18.64
2023-03-25T17:57:01.258Z,18.64
2023-03-25T17:57:11.588Z,18.68
2023-03-25T17:57:21.561Z,18.66
2023-03-25T17:57:31.757Z,18.69
2023-03-25T17:57:41.902Z,18.71
2023-03-25T17:57:52.873Z,18.72
2023-03-25T17:58:02.101Z,18.75
2023-03-25T17:58:12.191Z,18.75
2023-03-25T17:58:22.298Z,18.76
2023-03-25T17:58:32.464Z,18.78
2023-03-25T17:58:42.616Z,18.78
2023-03-25T17:59:02.890Z,18.82
2023-03-25T17:59:12.971Z,18.83
2023-03-25T17:59:22.931Z,18.84
2023-03-25T17:59:33.119Z,18.86
2023-03-25T17:59:43.449Z,18.87
2023-03-25T17:59:53.423Z,18.86
2023-03-25T18:00:03.557Z,18.87
2023-03-25T18:00:13.637Z,18.87
2023-03-25T18:00:23.858Z,18.86
2023-03-25T18:00:33.996Z,18.86
2023-03-25T18:00:44.070Z,18.87
2023-03-25T18:00:54.341Z,18.84
2023-03-25T18:01:04.319Z,18.86
2023-03-25T18:01:14.622Z,18.86
2023-03-25T18:01:24.891Z,18.84
2023-03-25T18:01:34.915Z,18.86
2023-03-25T18:01:46.053Z,18.84
2023-03-25T18:01:55.102Z,18.84
2023-03-25T18:02:05.217Z,18.83
2023-03-25T18:02:15.413Z,18.86
2023-03-25T18:02:25.584Z,18.86
2023-03-25T18:02:35.597Z,18.86
2023-03-25T18:02:56.089Z,18.89
2023-03-25T18:03:06.074Z,18.90
2023-03-25T18:03:16.081Z,18.91
2023-03-25T18:03:26.292Z,18.91
2023-03-25T18:03:36.390Z,18.93
2023-03-25T18:07:38.782Z,19.27
2023-03-25T18:07:49.837Z,19.30
2023-03-25T18:07:59.971Z,19.25
2023-03-25T18:08:10.157Z,19.23
2023-03-25T18:08:20.218Z,19.16
2023-03-25T18:08:30.367Z,19.10
2023-03-25T18:08:40.541Z,19.06
2023-03-25T18:08:50.737Z,19.02
2023-03-25T18:09:00.597Z,18.97
2023-03-25T18:09:10.868Z,18.90
2023-03-25T18:09:21.098Z,18.86
2023-03-25T18:09:30.986Z,18.82
2023-03-25T18:09:41.198Z,18.76
2023-03-25T18:09:51.397Z,18.72
2023-03-25T18:10:01.388Z,18.68
2023-03-25T18:10:11.484Z,18.65
2023-03-25T18:10:22.042Z,18.64
2023-03-25T18:10:31.675Z,18.62
2023-03-25T18:10:42.089Z,18.62
2023-03-25T18:10:52.587Z,18.59
2023-03-25T18:11:02.228Z,18.56
2023-03-25T18:11:12.387Z,18.51
2023-03-25T18:11:22.327Z,18.47
2023-03-25T18:11:32.621Z,18.42
2023-03-25T18:11:42.733Z,18.36
2023-03-25T18:11:52.965Z,18.32
2023-03-25T18:12:03.136Z,18.29
2023-03-25T18:12:13.012Z,18.25
2023-03-25T18:12:23.124Z,18.20
2023-03-25T18:12:33.453Z,18.14
2023-03-25T18:12:43.518Z,18.10
2023-03-25T18:12:53.979Z,18.07
2023-03-25T18:13:03.899Z,18.02
2023-03-25T18:13:13.999Z,18.01
2023-03-25T18:13:24.754Z,18.01
2023-03-25T18:13:34.143Z,17.99
2023-03-25T18:13:44.275Z,17.99
2023-03-25T18:13:54.364Z,17.98
2023-03-25T18:14:04.425Z,17.96
2023-03-25T18:14:14.592Z,17.95
2023-03-25T18:14:35.001Z,17.96
2023-03-25T18:14:45.934Z,17.95
2023-03-25T18:14:55.132Z,17.95
2023-03-25T18:15:05.251Z,17.95
2023-03-25T18:15:15.374Z,17.96
2023-03-25T18:15:25.498Z,17.95
2023-03-25T18:15:35.558Z,17.96
2023-03-25T18:15:56.698Z,17.96
2023-03-25T18:16:05.853Z,17.98
2023-03-25T18:16:16.073Z,17.98
2023-03-25T18:16:26.079Z,17.99
2023-03-25T18:16:36.195Z,17.99
2023-03-25T18:16:46.315Z,18.01
2023-03-25T18:17:06.750Z,17.98
2023-03-25T18:17:16.716Z,17.95
2023-03-25T18:17:27.726Z,17.91
2023-03-25T18:17:36.945Z,17.87
2023-03-25T18:17:47.044Z,17.84
2023-03-25T18:17:57.441Z,17.84
2023-03-25T18:18:08.213Z,17.80
2023-03-25T18:18:17.567Z,17.76
2023-03-25T18:18:28.830Z,17.74
2023-03-25T18:18:37.749Z,17.73
2023-03-25T18:18:47.911Z,17.71
2023-03-25T18:18:58.091Z,17.71
2023-03-25T18:19:18.312Z,17.70
2023-03-25T18:19:29.140Z,17.70
2023-03-25T18:19:38.699Z,17.68
2023-03-25T18:19:48.735Z,17.66
2023-03-25T18:19:59.076Z,17.63
2023-03-25T18:20:09.054Z,17.58
2023-03-25T18:20:19.020Z,17.57
2023-03-25T18:20:29.328Z,17.55
2023-03-25T18:20:39.326Z,17.54
2023-03-25T18:20:49.683Z,17.53
2023-03-25T18:21:00.341Z,17.51
2023-03-25T18:21:09.572Z,17.49
2023-03-25T18:21:19.684Z,17.51
2023-03-25T18:21:29.870Z,17.47
2023-03-25T18:21:39.986Z,17.47
2023-03-25T18:21:50.133Z,17.47
2023-03-25T18:22:10.212Z,17.46
2023-03-25T18:22:25.149Z,17.43
2023-03-25T18:22:31.085Z,17.40
2023-03-25T18:22:41.327Z,17.42
2023-03-25T18:22:54.059Z,17.42
2023-03-25T18:23:01.383Z,17.39
2023-03-25T18:23:11.503Z,17.40
2023-03-25T18:23:32.515Z,17.39
2023-03-25T18:23:41.921Z,17.39
2023-03-25T18:23:52.100Z,17.38
2023-03-25T18:24:02.155Z,17.39
2023-03-25T18:24:12.290Z,17.39
2023-03-25T18:24:22.455Z,17.40
2023-03-25T18:24:32.596Z,17.39
2023-03-25T18:24:43.701Z,17.40
2023-03-25T18:24:52.906Z,17.40
2023-03-25T18:25:02.937Z,17.42
2023-03-25T18:25:12.978Z,17.42
2023-03-25T18:25:23.100Z,17.43
2023-03-25T18:25:33.207Z,17.43
2023-03-25T18:25:53.594Z,17.43
2023-03-25T18:26:04.302Z,17.46
2023-03-25T18:26:13.755Z,17.46
2023-03-25T18:26:23.877Z,17.45
2023-03-25T18:26:34.024Z,17.47
2023-03-25T18:26:44.198Z,17.47
2023-03-25T18:26:54.233Z,17.46
2023-03-25T18:27:04.725Z,17.47
2023-03-25T18:27:14.632Z,17.47
2023-03-25T18:27:33.528Z,17.49
2023-03-25T18:28:35.439Z,17.47
2023-03-25T18:28:41.802Z,17.53
2023-03-25T18:28:51.806Z,17.55
2023-03-25T18:29:01.997Z,17.57
2023-03-25T18:29:11.948Z,17.58
2023-03-25T18:29:22.957Z,17.60
